sensor_id;sensor_type;location;lat;lon;timestamp;P1;durP1;ratioP1;P2;durP2;ratioP2
18021;SDS011;9136;48.822;7.966;2023-04-06T00:02:10;24.67;;;23.40;;
18021;SDS011;9136;48.822;7.966;2023-04-06T00:04:59;26.53;;;24.77;;
18021;SDS011;9136;48.822;7.966;2023-04-06T00:07:47;26.47;;;25.07;;
18021;SDS011;9136;48.822;7.966;2023-04-06T00:10:35;23.80;;;22.40;;
18021;SDS011;9136;48.822;7.966;2023-04-06T00:13:23;25.20;;;23.80;;
18021;SDS011;9136;48.822;7.966;2023-04-06T00:16:11;22.27;;;21.17;;
18021;SDS011;9136;48.822;7.966;2023-04-06T00:19:00;24.47;;;23.27;;
18021;SDS011;9136;48.822;7.966;2023-04-06T00:21:50;24.43;;;23.03;;
18021;SDS011;9136;48.822;7.966;2023-04-06T00:24:38;23.80;;;22.30;;
18021;SDS011;9136;48.822;7.966;2023-04-06T00:27:26;25.47;;;23.47;;
18021;SDS011;9136;48.822;7.966;2023-04-06T00:30:14;22.07;;;20.63;;
18021;SDS011;9136;48.822;7.966;2023-04-06T00:33:02;22.70;;;21.60;;
18021;SDS011;9136;48.822;7.966;2023-04-06T00:35:50;22.90;;;21.73;;
18021;SDS011;9136;48.822;7.966;2023-04-06T00:38:41;23.27;;;22.10;;
18021;SDS011;9136;48.822;7.966;2023-04-06T00:41:29;23.50;;;22.00;;
18021;SDS011;9136;48.822;7.966;2023-04-06T00:44:18;24.20;;;23.07;;
18021;SDS011;9136;48.822;7.966;2023-04-06T00:47:07;23.07;;;21.73;;
18021;SDS011;9136;48.822;7.966;2023-04-06T00:49:55;23.30;;;22.10;;
18021;SDS011;9136;48.822;7.966;2023-04-06T00:52:43;23.37;;;22.27;;
18021;SDS011;9136;48.822;7.966;2023-04-06T00:55:33;23.03;;;21.90;;
18021;SDS011;9136;48.822;7.966;2023-04-06T00:58:21;23.17;;;22.07;;
18021;SDS011;9136;48.822;7.966;2023-04-06T01:01:10;21.60;;;20.60;;
18021;SDS011;9136;48.822;7.966;2023-04-06T01:03:58;25.27;;;23.97;;
18021;SDS011;9136;48.822;7.966;2023-04-06T01:06:48;25.07;;;23.77;;
18021;SDS011;9136;48.822;7.966;2023-04-06T01:09:36;25.03;;;23.83;;
18021;SDS011;9136;48.822;7.966;2023-04-06T01:12:28;22.87;;;21.70;;
18021;SDS011;9136;48.822;7.966;2023-04-06T01:15:16;24.47;;;23.20;;
18021;SDS011;9136;48.822;7.966;2023-04-06T01:18:07;23.43;;;22.23;;
18021;SDS011;9136;48.822;7.966;2023-04-06T01:20:56;25.27;;;23.97;;
18021;SDS011;9136;48.822;7.966;2023-04-06T01:23:45;24.37;;;22.77;;
18021;SDS011;9136;48.822;7.966;2023-04-06T01:26:36;22.93;;;21.90;;
18021;SDS011;9136;48.822;7.966;2023-04-06T01:29:25;23.90;;;22.80;;
18021;SDS011;9136;48.822;7.966;2023-04-06T01:32:13;26.33;;;24.93;;
18021;SDS011;9136;48.822;7.966;2023-04-06T01:35:01;25.60;;;24.30;;
18021;SDS011;9136;48.822;7.966;2023-04-06T01:37:49;22.63;;;21.07;;
18021;SDS011;9136;48.822;7.966;2023-04-06T01:40:38;23.17;;;22.00;;
18021;SDS011;9136;48.822;7.966;2023-04-06T01:43:26;22.50;;;21.50;;
18021;SDS011;9136;48.822;7.966;2023-04-06T01:46:14;24.10;;;22.63;;
18021;SDS011;9136;48.822;7.966;2023-04-06T01:49:02;23.13;;;22.13;;
18021;SDS011;9136;48.822;7.966;2023-04-06T01:51:50;25.73;;;24.50;;
18021;SDS011;9136;48.822;7.966;2023-04-06T01:54:40;21.80;;;20.50;;
18021;SDS011;9136;48.822;7.966;2023-04-06T01:57:29;24.20;;;23.10;;
18021;SDS011;9136;48.822;7.966;2023-04-06T02:00:17;25.13;;;23.93;;
18021;SDS011;9136;48.822;7.966;2023-04-06T02:03:05;23.53;;;22.43;;
18021;SDS011;9136;48.822;7.966;2023-04-06T02:05:53;23.83;;;22.73;;
18021;SDS011;9136;48.822;7.966;2023-04-06T02:08:41;20.23;;;19.33;;
18021;SDS011;9136;48.822;7.966;2023-04-06T02:11:29;24.97;;;23.47;;
18021;SDS011;9136;48.822;7.966;2023-04-06T02:14:18;21.43;;;20.43;;
18021;SDS011;9136;48.822;7.966;2023-04-06T02:17:06;21.30;;;20.30;;
18021;SDS011;9136;48.822;7.966;2023-04-06T02:19:55;23.30;;;22.03;;
18021;SDS011;9136;48.822;7.966;2023-04-06T02:22:43;24.23;;;22.83;;
18021;SDS011;9136;48.822;7.966;2023-04-06T02:25:31;22.47;;;21.40;;
18021;SDS011;9136;48.822;7.966;2023-04-06T02:28:19;21.93;;;20.77;;
18021;SDS011;9136;48.822;7.966;2023-04-06T02:31:09;26.10;;;24.70;;
18021;SDS011;9136;48.822;7.966;2023-04-06T02:33:59;24.67;;;22.93;;
18021;SDS011;9136;48.822;7.966;2023-04-06T02:36:47;21.40;;;20.20;;
18021;SDS011;9136;48.822;7.966;2023-04-06T02:39:38;24.87;;;22.63;;
18021;SDS011;9136;48.822;7.966;2023-04-06T02:42:26;22.50;;;21.40;;
18021;SDS011;9136;48.822;7.966;2023-04-06T02:45:15;20.90;;;19.80;;
18021;SDS011;9136;48.822;7.966;2023-04-06T02:48:05;25.30;;;24.03;;
18021;SDS011;9136;48.822;7.966;2023-04-06T02:50:53;22.17;;;21.07;;
18021;SDS011;9136;48.822;7.966;2023-04-06T02:53:41;22.30;;;21.30;;
18021;SDS011;9136;48.822;7.966;2023-04-06T02:56:29;26.37;;;24.97;;
18021;SDS011;9136;48.822;7.966;2023-04-06T03:03:13;23.13;;;21.97;;
18021;SDS011;9136;48.822;7.966;2023-04-06T03:06:01;25.07;;;23.60;;
18021;SDS011;9136;48.822;7.966;2023-04-06T03:08:49;25.07;;;23.87;;
18021;SDS011;9136;48.822;7.966;2023-04-06T03:11:37;23.40;;;22.10;;
18021;SDS011;9136;48.822;7.966;2023-04-06T03:14:25;23.17;;;22.07;;
18021;SDS011;9136;48.822;7.966;2023-04-06T03:17:14;24.77;;;23.60;;
18021;SDS011;9136;48.822;7.966;2023-04-06T03:20:04;24.37;;;22.80;;
18021;SDS011;9136;48.822;7.966;2023-04-06T03:22:52;27.87;;;25.87;;
18021;SDS011;9136;48.822;7.966;2023-04-06T03:25:42;26.67;;;25.07;;
18021;SDS011;9136;48.822;7.966;2023-04-06T03:28:30;27.03;;;25.60;;
18021;SDS011;9136;48.822;7.966;2023-04-06T03:31:20;25.13;;;23.90;;
18021;SDS011;9136;48.822;7.966;2023-04-06T03:34:08;24.97;;;23.77;;
18021;SDS011;9136;48.822;7.966;2023-04-06T03:36:59;25.57;;;24.27;;
18021;SDS011;9136;48.822;7.966;2023-04-06T03:39:47;25.87;;;23.83;;
18021;SDS011;9136;48.822;7.966;2023-04-06T03:42:35;27.13;;;25.73;;
18021;SDS011;9136;48.822;7.966;2023-04-06T03:45:23;27.23;;;25.57;;
18021;SDS011;9136;48.822;7.966;2023-04-06T03:48:11;27.23;;;25.43;;
18021;SDS011;9136;48.822;7.966;2023-04-06T03:50:59;24.83;;;23.53;;
18021;SDS011;9136;48.822;7.966;2023-04-06T03:53:48;26.67;;;25.20;;
18021;SDS011;9136;48.822;7.966;2023-04-06T03:56:36;28.13;;;26.03;;
18021;SDS011;9136;48.822;7.966;2023-04-06T03:59:24;28.13;;;26.67;;
18021;SDS011;9136;48.822;7.966;2023-04-06T04:02:11;26.57;;;25.13;;
18021;SDS011;9136;48.822;7.966;2023-04-06T04:04:59;26.67;;;25.00;;
18021;SDS011;9136;48.822;7.966;2023-04-06T04:07:50;26.30;;;24.83;;
18021;SDS011;9136;48.822;7.966;2023-04-06T04:10:39;24.87;;;23.73;;
18021;SDS011;9136;48.822;7.966;2023-04-06T04:13:27;26.53;;;25.23;;
18021;SDS011;9136;48.822;7.966;2023-04-06T04:16:16;25.83;;;24.33;;
18021;SDS011;9136;48.822;7.966;2023-04-06T04:19:03;24.87;;;23.47;;
18021;SDS011;9136;48.822;7.966;2023-04-06T04:21:51;25.47;;;23.97;;
18021;SDS011;9136;48.822;7.966;2023-04-06T04:24:39;25.00;;;23.70;;
18021;SDS011;9136;48.822;7.966;2023-04-06T04:27:28;26.67;;;25.27;;
18021;SDS011;9136;48.822;7.966;2023-04-06T04:30:16;28.63;;;26.97;;
18021;SDS011;9136;48.822;7.966;2023-04-06T04:33:04;27.57;;;25.93;;
18021;SDS011;9136;48.822;7.966;2023-04-06T04:35:54;24.93;;;23.63;;
18021;SDS011;9136;48.822;7.966;2023-04-06T04:38:44;27.73;;;25.30;;
18021;SDS011;9136;48.822;7.966;2023-04-06T04:41:32;27.37;;;25.87;;
18021;SDS011;9136;48.822;7.966;2023-04-06T04:44:21;26.67;;;25.40;;
18021;SDS011;9136;48.822;7.966;2023-04-06T04:47:09;25.03;;;23.83;;
18021;SDS011;9136;48.822;7.966;2023-04-06T04:49:57;26.03;;;24.77;;
18021;SDS011;9136;48.822;7.966;2023-04-06T04:52:45;23.83;;;22.60;;
18021;SDS011;9136;48.822;7.966;2023-04-06T04:55:33;24.33;;;22.63;;
18021;SDS011;9136;48.822;7.966;2023-04-06T04:58:21;25.60;;;24.23;;
18021;SDS011;9136;48.822;7.966;2023-04-06T05:01:10;28.80;;;27.30;;
18021;SDS011;9136;48.822;7.966;2023-04-06T05:03:58;26.67;;;25.27;;
18021;SDS011;9136;48.822;7.966;2023-04-06T05:06:47;25.67;;;24.40;;
18021;SDS011;9136;48.822;7.966;2023-04-06T05:09:35;26.77;;;25.57;;
18021;SDS011;9136;48.822;7.966;2023-04-06T05:12:23;23.40;;;22.10;;
18021;SDS011;9136;48.822;7.966;2023-04-06T05:15:12;26.07;;;24.67;;
18021;SDS011;9136;48.822;7.966;2023-04-06T05:18:02;25.43;;;24.17;;
18021;SDS011;9136;48.822;7.966;2023-04-06T05:20:50;26.93;;;25.17;;
18021;SDS011;9136;48.822;7.966;2023-04-06T05:23:38;26.30;;;24.93;;
18021;SDS011;9136;48.822;7.966;2023-04-06T05:26:26;25.33;;;23.77;;
18021;SDS011;9136;48.822;7.966;2023-04-06T05:29:13;27.87;;;26.27;;
18021;SDS011;9136;48.822;7.966;2023-04-06T05:32:02;24.30;;;23.10;;
18021;SDS011;9136;48.822;7.966;2023-04-06T05:34:52;28.50;;;26.00;;
18021;SDS011;9136;48.822;7.966;2023-04-06T05:37:40;26.97;;;25.47;;
18021;SDS011;9136;48.822;7.966;2023-04-06T05:40:29;24.30;;;23.10;;
18021;SDS011;9136;48.822;7.966;2023-04-06T05:43:18;26.97;;;25.70;;
18021;SDS011;9136;48.822;7.966;2023-04-06T05:46:08;25.37;;;23.87;;
18021;SDS011;9136;48.822;7.966;2023-04-06T05:48:56;23.03;;;21.73;;
18021;SDS011;9136;48.822;7.966;2023-04-06T05:51:46;24.07;;;22.57;;
18021;SDS011;9136;48.822;7.966;2023-04-06T05:54:34;23.83;;;22.43;;
18021;SDS011;9136;48.822;7.966;2023-04-06T05:57:22;25.80;;;23.77;;
18021;SDS011;9136;48.822;7.966;2023-04-06T06:00:11;27.37;;;25.77;;
18021;SDS011;9136;48.822;7.966;2023-04-06T06:03:00;23.40;;;22.13;;
18021;SDS011;9136;48.822;7.966;2023-04-06T06:05:52;27.17;;;25.67;;
18021;SDS011;9136;48.822;7.966;2023-04-06T06:08:41;24.10;;;22.87;;
18021;SDS011;9136;48.822;7.966;2023-04-06T06:11:31;22.97;;;21.87;;
18021;SDS011;9136;48.822;7.966;2023-04-06T06:14:21;28.30;;;26.93;;
18021;SDS011;9136;48.822;7.966;2023-04-06T06:17:09;26.47;;;25.07;;
18021;SDS011;9136;48.822;7.966;2023-04-06T06:19:58;25.33;;;24.17;;
18021;SDS011;9136;48.822;7.966;2023-04-06T06:22:46;28.13;;;26.43;;
18021;SDS011;9136;48.822;7.966;2023-04-06T06:25:35;26.23;;;24.93;;
18021;SDS011;9136;48.822;7.966;2023-04-06T06:28:23;25.63;;;24.20;;
18021;SDS011;9136;48.822;7.966;2023-04-06T06:31:13;25.00;;;23.80;;
18021;SDS011;9136;48.822;7.966;2023-04-06T06:34:05;29.50;;;28.10;;
18021;SDS011;9136;48.822;7.966;2023-04-06T06:36:53;25.27;;;24.07;;
18021;SDS011;9136;48.822;7.966;2023-04-06T06:39:41;23.27;;;22.17;;
18021;SDS011;9136;48.822;7.966;2023-04-06T06:42:30;23.53;;;22.43;;
18021;SDS011;9136;48.822;7.966;2023-04-06T06:45:19;23.30;;;22.17;;
18021;SDS011;9136;48.822;7.966;2023-04-06T06:48:07;22.80;;;21.73;;
18021;SDS011;9136;48.822;7.966;2023-04-06T06:50:55;22.33;;;21.27;;
18021;SDS011;9136;48.822;7.966;2023-04-06T06:53:45;24.90;;;23.53;;
18021;SDS011;9136;48.822;7.966;2023-04-06T06:56:33;23.40;;;22.30;;
18021;SDS011;9136;48.822;7.966;2023-04-06T06:59:25;21.00;;;20.10;;
18021;SDS011;9136;48.822;7.966;2023-04-06T07:02:14;23.40;;;22.27;;
18021;SDS011;9136;48.822;7.966;2023-04-06T07:05:02;24.83;;;23.63;;
18021;SDS011;9136;48.822;7.966;2023-04-06T07:07:50;25.33;;;24.03;;
18021;SDS011;9136;48.822;7.966;2023-04-06T07:10:38;24.63;;;23.53;;
18021;SDS011;9136;48.822;7.966;2023-04-06T07:13:26;21.57;;;20.50;;
18021;SDS011;9136;48.822;7.966;2023-04-06T07:16:18;23.40;;;22.17;;
18021;SDS011;9136;48.822;7.966;2023-04-06T07:19:08;22.60;;;21.50;;
18021;SDS011;9136;48.822;7.966;2023-04-06T07:21:56;21.07;;;20.10;;
18021;SDS011;9136;48.822;7.966;2023-04-06T07:24:44;19.60;;;18.70;;
18021;SDS011;9136;48.822;7.966;2023-04-06T07:27:33;25.20;;;23.80;;
18021;SDS011;9136;48.822;7.966;2023-04-06T07:30:21;20.10;;;19.13;;
18021;SDS011;9136;48.822;7.966;2023-04-06T07:33:18;22.20;;;20.70;;
18021;SDS011;9136;48.822;7.966;2023-04-06T07:36:10;21.47;;;20.47;;
18021;SDS011;9136;48.822;7.966;2023-04-06T07:38:58;20.07;;;19.17;;
18021;SDS011;9136;48.822;7.966;2023-04-06T07:41:46;21.43;;;20.43;;
18021;SDS011;9136;48.822;7.966;2023-04-06T07:44:34;22.67;;;21.57;;
18021;SDS011;9136;48.822;7.966;2023-04-06T07:47:22;21.30;;;20.07;;
18021;SDS011;9136;48.822;7.966;2023-04-06T07:50:12;20.03;;;19.13;;
18021;SDS011;9136;48.822;7.966;2023-04-06T07:53:00;22.90;;;21.73;;
18021;SDS011;9136;48.822;7.966;2023-04-06T07:55:48;19.40;;;18.57;;
18021;SDS011;9136;48.822;7.966;2023-04-06T08:02:31;19.70;;;18.80;;
18021;SDS011;9136;48.822;7.966;2023-04-06T08:05:21;18.33;;;17.53;;
18021;SDS011;9136;48.822;7.966;2023-04-06T08:08:10;17.37;;;16.67;;
18021;SDS011;9136;48.822;7.966;2023-04-06T08:10:58;18.57;;;17.77;;
18021;SDS011;9136;48.822;7.966;2023-04-06T08:13:48;23.17;;;22.17;;
18021;SDS011;9136;48.822;7.966;2023-04-06T08:16:39;19.70;;;18.70;;
18021;SDS011;9136;48.822;7.966;2023-04-06T08:19:27;20.17;;;19.27;;
18021;SDS011;9136;48.822;7.966;2023-04-06T08:22:16;21.57;;;20.57;;
18021;SDS011;9136;48.822;7.966;2023-04-06T08:25:05;21.40;;;20.43;;
18021;SDS011;9136;48.822;7.966;2023-04-06T08:27:57;19.47;;;18.57;;
18021;SDS011;9136;48.822;7.966;2023-04-06T08:30:47;18.23;;;17.43;;
18021;SDS011;9136;48.822;7.966;2023-04-06T08:33:38;18.17;;;17.37;;
18021;SDS011;9136;48.822;7.966;2023-04-06T08:36:26;18.27;;;17.47;;
18021;SDS011;9136;48.822;7.966;2023-04-06T08:39:15;15.63;;;14.93;;
18021;SDS011;9136;48.822;7.966;2023-04-06T08:42:16;17.60;;;16.77;;
18021;SDS011;9136;48.822;7.966;2023-04-06T08:45:10;18.00;;;17.20;;
18021;SDS011;9136;48.822;7.966;2023-04-06T08:48:03;20.23;;;19.23;;
18021;SDS011;9136;48.822;7.966;2023-04-06T08:50:54;19.37;;;18.40;;
18021;SDS011;9136;48.822;7.966;2023-04-06T08:53:45;17.03;;;16.17;;
18021;SDS011;9136;48.822;7.966;2023-04-06T08:56:38;18.07;;;17.27;;
18021;SDS011;9136;48.822;7.966;2023-04-06T08:59:31;17.83;;;17.03;;
18021;SDS011;9136;48.822;7.966;2023-04-06T09:02:24;17.13;;;16.33;;
18021;SDS011;9136;48.822;7.966;2023-04-06T09:05:12;16.97;;;16.17;;
18021;SDS011;9136;48.822;7.966;2023-04-06T09:08:01;18.07;;;17.27;;
18021;SDS011;9136;48.822;7.966;2023-04-06T09:10:54;18.07;;;16.63;;
18021;SDS011;9136;48.822;7.966;2023-04-06T09:16:49;17.57;;;16.77;;
18021;SDS011;9136;48.822;7.966;2023-04-06T09:19:44;16.50;;;15.80;;
18021;SDS011;9136;48.822;7.966;2023-04-06T09:22:37;16.70;;;16.00;;
18021;SDS011;9136;48.822;7.966;2023-04-06T09:25:26;16.50;;;15.60;;
18021;SDS011;9136;48.822;7.966;2023-04-06T09:28:16;17.27;;;16.47;;
18021;SDS011;9136;48.822;7.966;2023-04-06T09:31:16;16.50;;;15.70;;
18021;SDS011;9136;48.822;7.966;2023-04-06T09:34:19;16.93;;;16.13;;
18021;SDS011;9136;48.822;7.966;2023-04-06T09:37:14;18.27;;;17.47;;
18021;SDS011;9136;48.822;7.966;2023-04-06T09:40:04;18.20;;;17.23;;
18021;SDS011;9136;48.822;7.966;2023-04-06T09:42:57;17.13;;;16.33;;
18021;SDS011;9136;48.822;7.966;2023-04-06T09:45:50;19.93;;;18.90;;
18021;SDS011;9136;48.822;7.966;2023-04-06T09:48:43;17.73;;;16.73;;
18021;SDS011;9136;48.822;7.966;2023-04-06T09:51:38;17.20;;;16.33;;
18021;SDS011;9136;48.822;7.966;2023-04-06T09:54:30;16.80;;;15.97;;
18021;SDS011;9136;48.822;7.966;2023-04-06T09:57:23;16.77;;;15.90;;
18021;SDS011;9136;48.822;7.966;2023-04-06T10:00:21;17.97;;;17.17;;
18021;SDS011;9136;48.822;7.966;2023-04-06T10:03:25;15.97;;;15.10;;
18021;SDS011;9136;48.822;7.966;2023-04-06T10:06:32;19.37;;;18.47;;
18021;SDS011;9136;48.822;7.966;2023-04-06T10:09:24;18.77;;;17.77;;
18021;SDS011;9136;48.822;7.966;2023-04-06T10:12:31;16.20;;;15.50;;
18021;SDS011;9136;48.822;7.966;2023-04-06T10:15:19;15.03;;;14.33;;
18021;SDS011;9136;48.822;7.966;2023-04-06T10:18:08;17.07;;;16.27;;
18021;SDS011;9136;48.822;7.966;2023-04-06T10:20:57;16.13;;;15.27;;
18021;SDS011;9136;48.822;7.966;2023-04-06T10:23:58;15.07;;;14.37;;
18021;SDS011;9136;48.822;7.966;2023-04-06T10:27:00;16.73;;;15.87;;
18021;SDS011;9136;48.822;7.966;2023-04-06T10:29:49;16.23;;;15.43;;
18021;SDS011;9136;48.822;7.966;2023-04-06T10:32:51;17.13;;;16.23;;
18021;SDS011;9136;48.822;7.966;2023-04-06T10:35:39;17.43;;;16.53;;
18021;SDS011;9136;48.822;7.966;2023-04-06T10:38:34;16.77;;;15.87;;
18021;SDS011;9136;48.822;7.966;2023-04-06T10:41:36;16.10;;;15.37;;
18021;SDS011;9136;48.822;7.966;2023-04-06T10:44:41;16.47;;;15.47;;
18021;SDS011;9136;48.822;7.966;2023-04-06T10:47:34;15.13;;;14.43;;
18021;SDS011;9136;48.822;7.966;2023-04-06T10:50:30;16.43;;;15.53;;
18021;SDS011;9136;48.822;7.966;2023-04-06T10:53:20;15.10;;;14.40;;
18021;SDS011;9136;48.822;7.966;2023-04-06T10:56:11;14.03;;;13.43;;
18021;SDS011;9136;48.822;7.966;2023-04-06T10:59:02;14.47;;;13.77;;
18021;SDS011;9136;48.822;7.966;2023-04-06T11:01:57;14.43;;;13.73;;
18021;SDS011;9136;48.822;7.966;2023-04-06T11:04:53;15.40;;;14.70;;
18021;SDS011;9136;48.822;7.966;2023-04-06T11:08:02;13.57;;;12.97;;
18021;SDS011;9136;48.822;7.966;2023-04-06T11:11:03;15.13;;;14.23;;
18021;SDS011;9136;48.822;7.966;2023-04-06T11:13:57;16.60;;;15.60;;
18021;SDS011;9136;48.822;7.966;2023-04-06T11:16:51;14.20;;;13.60;;
18021;SDS011;9136;48.822;7.966;2023-04-06T11:19:39;13.67;;;12.43;;
18021;SDS011;9136;48.822;7.966;2023-04-06T11:22:27;14.40;;;13.70;;
18021;SDS011;9136;48.822;7.966;2023-04-06T11:25:17;14.50;;;13.80;;
18021;SDS011;9136;48.822;7.966;2023-04-06T11:28:05;14.03;;;13.10;;
18021;SDS011;9136;48.822;7.966;2023-04-06T11:30:59;15.90;;;15.00;;
18021;SDS011;9136;48.822;7.966;2023-04-06T11:33:50;14.13;;;13.27;;
18021;SDS011;9136;48.822;7.966;2023-04-06T11:36:45;14.40;;;13.60;;
18021;SDS011;9136;48.822;7.966;2023-04-06T11:39:37;14.70;;;13.90;;
18021;SDS011;9136;48.822;7.966;2023-04-06T11:42:28;14.37;;;13.67;;
18021;SDS011;9136;48.822;7.966;2023-04-06T11:45:16;14.63;;;13.73;;
18021;SDS011;9136;48.822;7.966;2023-04-06T11:48:06;14.33;;;13.53;;
18021;SDS011;9136;48.822;7.966;2023-04-06T11:54:17;13.27;;;12.55;;
18021;SDS011;9136;48.822;7.966;2023-04-06T11:57:18;12.48;;;11.82;;
18021;SDS011;9136;48.822;7.966;2023-04-06T12:00:11;14.05;;;13.35;;
18021;SDS011;9136;48.822;7.966;2023-04-06T12:03:00;13.20;;;12.60;;
18021;SDS011;9136;48.822;7.966;2023-04-06T12:05:51;13.57;;;12.40;;
18021;SDS011;9136;48.822;7.966;2023-04-06T12:08:40;14.07;;;13.02;;
18021;SDS011;9136;48.822;7.966;2023-04-06T12:11:30;13.00;;;12.30;;
18021;SDS011;9136;48.822;7.966;2023-04-06T12:14:18;14.82;;;13.77;;
18021;SDS011;9136;48.822;7.966;2023-04-06T12:17:06;14.10;;;13.30;;
18021;SDS011;9136;48.822;7.966;2023-04-06T12:19:54;13.73;;;13.03;;
18021;SDS011;9136;48.822;7.966;2023-04-06T12:22:43;14.73;;;13.83;;
18021;SDS011;9136;48.822;7.966;2023-04-06T12:25:34;14.00;;;13.20;;
18021;SDS011;9136;48.822;7.966;2023-04-06T12:28:24;13.87;;;13.07;;
18021;SDS011;9136;48.822;7.966;2023-04-06T12:31:14;13.68;;;13.07;;
18021;SDS011;9136;48.822;7.966;2023-04-06T12:34:04;14.25;;;13.55;;
18021;SDS011;9136;48.822;7.966;2023-04-06T12:36:52;14.23;;;13.52;;
18021;SDS011;9136;48.822;7.966;2023-04-06T12:39:40;13.77;;;13.07;;
18021;SDS011;9136;48.822;7.966;2023-04-06T12:42:33;15.27;;;14.27;;
18021;SDS011;9136;48.822;7.966;2023-04-06T12:45:22;15.47;;;14.57;;
18021;SDS011;9136;48.822;7.966;2023-04-06T12:48:10;15.97;;;15.17;;
18021;SDS011;9136;48.822;7.966;2023-04-06T12:50:58;12.93;;;12.23;;
18021;SDS011;9136;48.822;7.966;2023-04-06T12:53:50;14.90;;;14.10;;
18021;SDS011;9136;48.822;7.966;2023-04-06T12:56:38;13.43;;;12.83;;
18021;SDS011;9136;48.822;7.966;2023-04-06T12:59:30;13.27;;;12.63;;
18021;SDS011;9136;48.822;7.966;2023-04-06T13:02:21;13.90;;;13.20;;
18021;SDS011;9136;48.822;7.966;2023-04-06T13:05:09;13.13;;;12.53;;
18021;SDS011;9136;48.822;7.966;2023-04-06T13:07:57;13.80;;;13.03;;
18021;SDS011;9136;48.822;7.966;2023-04-06T13:10:46;13.93;;;13.23;;
18021;SDS011;9136;48.822;7.966;2023-04-06T13:13:38;14.90;;;14.00;;
18021;SDS011;9136;48.822;7.966;2023-04-06T13:16:28;14.70;;;13.80;;
18021;SDS011;9136;48.822;7.966;2023-04-06T13:19:18;14.27;;;13.40;;
18021;SDS011;9136;48.822;7.966;2023-04-06T13:22:06;13.93;;;13.17;;
18021;SDS011;9136;48.822;7.966;2023-04-06T13:24:54;12.40;;;11.80;;
18021;SDS011;9136;48.822;7.966;2023-04-06T13:27:42;14.40;;;13.70;;
18021;SDS011;9136;48.822;7.966;2023-04-06T13:30:33;15.07;;;13.90;;
18021;SDS011;9136;48.822;7.966;2023-04-06T13:33:23;14.13;;;13.43;;
18021;SDS011;9136;48.822;7.966;2023-04-06T13:36:11;12.77;;;12.13;;
18021;SDS011;9136;48.822;7.966;2023-04-06T13:38:59;13.07;;;12.37;;
18021;SDS011;9136;48.822;7.966;2023-04-06T13:41:47;14.53;;;13.73;;
18021;SDS011;9136;48.822;7.966;2023-04-06T13:44:35;14.03;;;13.30;;
18021;SDS011;9136;48.822;7.966;2023-04-06T13:47:23;15.13;;;14.10;;
18021;SDS011;9136;48.822;7.966;2023-04-06T13:50:12;15.10;;;14.33;;
18021;SDS011;9136;48.822;7.966;2023-04-06T13:53:00;12.97;;;12.23;;
18021;SDS011;9136;48.822;7.966;2023-04-06T13:55:54;13.57;;;12.97;;
18021;SDS011;9136;48.822;7.966;2023-04-06T13:58:42;14.07;;;13.30;;
18021;SDS011;9136;48.822;7.966;2023-04-06T14:01:30;12.60;;;12.00;;
18021;SDS011;9136;48.822;7.966;2023-04-06T14:04:19;15.03;;;14.23;;
18021;SDS011;9136;48.822;7.966;2023-04-06T14:07:08;14.60;;;13.90;;
18021;SDS011;9136;48.822;7.966;2023-04-06T14:09:59;15.17;;;14.33;;
18021;SDS011;9136;48.822;7.966;2023-04-06T14:12:47;14.17;;;13.57;;
18021;SDS011;9136;48.822;7.966;2023-04-06T14:15:35;14.30;;;13.50;;
18021;SDS011;9136;48.822;7.966;2023-04-06T14:18:23;14.40;;;13.80;;
18021;SDS011;9136;48.822;7.966;2023-04-06T14:21:14;15.97;;;14.97;;
18021;SDS011;9136;48.822;7.966;2023-04-06T14:24:03;13.90;;;13.27;;
18021;SDS011;9136;48.822;7.966;2023-04-06T14:26:53;13.83;;;12.93;;
18021;SDS011;9136;48.822;7.966;2023-04-06T14:29:43;14.43;;;13.63;;
18021;SDS011;9136;48.822;7.966;2023-04-06T14:32:31;16.13;;;15.23;;
18021;SDS011;9136;48.822;7.966;2023-04-06T14:35:21;14.07;;;13.40;;
18021;SDS011;9136;48.822;7.966;2023-04-06T14:38:09;13.80;;;13.10;;
18021;SDS011;9136;48.822;7.966;2023-04-06T14:40:58;14.07;;;13.37;;
18021;SDS011;9136;48.822;7.966;2023-04-06T14:43:46;14.93;;;14.23;;
18021;SDS011;9136;48.822;7.966;2023-04-06T14:46:34;14.07;;;13.37;;
18021;SDS011;9136;48.822;7.966;2023-04-06T14:49:22;14.57;;;13.80;;
18021;SDS011;9136;48.822;7.966;2023-04-06T14:52:10;14.47;;;13.87;;
18021;SDS011;9136;48.822;7.966;2023-04-06T14:54:58;13.27;;;12.57;;
18021;SDS011;9136;48.822;7.966;2023-04-06T14:57:49;13.97;;;13.27;;
18021;SDS011;9136;48.822;7.966;2023-04-06T15:00:37;15.73;;;14.90;;
18021;SDS011;9136;48.822;7.966;2023-04-06T15:03:25;15.03;;;14.33;;
18021;SDS011;9136;48.822;7.966;2023-04-06T15:06:14;14.17;;;13.57;;
18021;SDS011;9136;48.822;7.966;2023-04-06T15:09:04;15.47;;;14.77;;
18021;SDS011;9136;48.822;7.966;2023-04-06T15:11:52;15.97;;;15.17;;
18021;SDS011;9136;48.822;7.966;2023-04-06T15:14:41;15.27;;;14.57;;
18021;SDS011;9136;48.822;7.966;2023-04-06T15:17:29;15.17;;;14.47;;
18021;SDS011;9136;48.822;7.966;2023-04-06T15:20:16;15.23;;;14.43;;
18021;SDS011;9136;48.822;7.966;2023-04-06T15:23:04;13.93;;;13.23;;
18021;SDS011;9136;48.822;7.966;2023-04-06T15:25:52;15.63;;;14.37;;
18021;SDS011;9136;48.822;7.966;2023-04-06T15:28:40;14.30;;;13.70;;
18021;SDS011;9136;48.822;7.966;2023-04-06T15:31:32;15.80;;;15.10;;
18021;SDS011;9136;48.822;7.966;2023-04-06T15:34:20;14.80;;;14.10;;
18021;SDS011;9136;48.822;7.966;2023-04-06T15:37:08;16.77;;;16.00;;
18021;SDS011;9136;48.822;7.966;2023-04-06T15:39:56;16.13;;;15.43;;
18021;SDS011;9136;48.822;7.966;2023-04-06T15:42:44;14.47;;;13.77;;
18021;SDS011;9136;48.822;7.966;2023-04-06T15:45:32;15.30;;;14.60;;
18021;SDS011;9136;48.822;7.966;2023-04-06T15:48:23;15.47;;;14.57;;
18021;SDS011;9136;48.822;7.966;2023-04-06T15:51:16;15.97;;;15.27;;
18021;SDS011;9136;48.822;7.966;2023-04-06T15:54:04;15.63;;;14.93;;
18021;SDS011;9136;48.822;7.966;2023-04-06T15:56:52;16.53;;;15.37;;
18021;SDS011;9136;48.822;7.966;2023-04-06T15:59:41;16.53;;;15.73;;
18021;SDS011;9136;48.822;7.966;2023-04-06T16:02:29;15.57;;;14.83;;
18021;SDS011;9136;48.822;7.966;2023-04-06T16:05:20;15.60;;;14.80;;
18021;SDS011;9136;48.822;7.966;2023-04-06T16:08:10;14.70;;;13.90;;
18021;SDS011;9136;48.822;7.966;2023-04-06T16:10:59;15.17;;;14.47;;
18021;SDS011;9136;48.822;7.966;2023-04-06T16:13:46;16.60;;;15.90;;
18021;SDS011;9136;48.822;7.966;2023-04-06T16:16:34;15.40;;;14.70;;
18021;SDS011;9136;48.822;7.966;2023-04-06T16:19:26;16.13;;;15.33;;
18021;SDS011;9136;48.822;7.966;2023-04-06T16:22:15;16.77;;;15.87;;
18021;SDS011;9136;48.822;7.966;2023-04-06T16:25:03;17.77;;;16.97;;
18021;SDS011;9136;48.822;7.966;2023-04-06T16:27:51;16.10;;;15.40;;
18021;SDS011;9136;48.822;7.966;2023-04-06T16:30:39;15.53;;;14.83;;
18021;SDS011;9136;48.822;7.966;2023-04-06T16:33:27;15.30;;;14.60;;
18021;SDS011;9136;48.822;7.966;2023-04-06T16:36:20;15.67;;;14.97;;
18021;SDS011;9136;48.822;7.966;2023-04-06T16:39:11;16.43;;;15.73;;
18021;SDS011;9136;48.822;7.966;2023-04-06T16:42:02;16.63;;;15.83;;
18021;SDS011;9136;48.822;7.966;2023-04-06T16:44:51;14.93;;;14.30;;
18021;SDS011;9136;48.822;7.966;2023-04-06T16:47:39;16.17;;;15.47;;
18021;SDS011;9136;48.822;7.966;2023-04-06T16:50:27;15.87;;;15.17;;
18021;SDS011;9136;48.822;7.966;2023-04-06T16:53:15;16.53;;;15.73;;
18021;SDS011;9136;48.822;7.966;2023-04-06T16:56:04;15.93;;;15.20;;
18021;SDS011;9136;48.822;7.966;2023-04-06T16:58:54;16.63;;;15.40;;
18021;SDS011;9136;48.822;7.966;2023-04-06T17:01:44;14.70;;;14.10;;